sensor_id;sensor_type;location;lat;lon;timestamp;temperature;humidity
31074;DHT22;17730;53.552;9.940;2023-03-19T00:00:05;11.30;99.90
31074;DHT22;17730;53.552;9.940;2023-03-19T00:02:33;11.20;99.90
31074;DHT22;17730;53.552;9.940;2023-03-19T00:04:58;11.10;99.90
31074;DHT22;17730;53.552;9.940;2023-03-19T00:07:23;11.10;99.90
31074;DHT22;17730;53.552;9.940;2023-03-19T00:09:49;11.10;99.90
31074;DHT22;17730;53.552;9.940;2023-03-19T00:12:15;11.00;99.90
31074;DHT22;17730;53.552;9.940;2023-03-19T00:14:40;11.10;99.90
31074;DHT22;17730;53.552;9.940;2023-03-19T00:17:06;11.10;99.90
31074;DHT22;17730;53.552;9.940;2023-03-19T00:19:31;11.10;99.90
31074;DHT22;17730;53.552;9.940;2023-03-19T00:21:57;11.10;99.90
31074;DHT22;17730;53.552;9.940;2023-03-19T00:24:23;11.10;99.90
31074;DHT22;17730;53.552;9.940;2023-03-19T00:26:48;11.10;99.90
31074;DHT22;17730;53.552;9.940;2023-03-19T00:29:13;11.10;99.90
31074;DHT22;17730;53.552;9.940;2023-03-19T00:31:39;11.00;99.90
31074;DHT22;17730;53.552;9.940;2023-03-19T00:34:06;11.00;99.90
31074;DHT22;17730;53.552;9.940;2023-03-19T00:36:32;10.90;99.90
31074;DHT22;17730;53.552;9.940;2023-03-19T00:38:57;10.90;99.90
31074;DHT22;17730;53.552;9.940;2023-03-19T00:41:23;10.80;99.90
31074;DHT22;17730;53.552;9.940;2023-03-19T00:43:53;10.80;99.90
31074;DHT22;17730;53.552;9.940;2023-03-19T00:46:18;10.90;99.90
31074;DHT22;17730;53.552;9.940;2023-03-19T00:48:45;10.90;99.90
31074;DHT22;17730;53.552;9.940;2023-03-19T00:51:10;10.90;99.90
31074;DHT22;17730;53.552;9.940;2023-03-19T00:53:39;10.80;99.90
31074;DHT22;17730;53.552;9.940;2023-03-19T00:56:06;10.80;99.90
31074;DHT22;17730;53.552;9.940;2023-03-19T00:58:32;10.80;99.90
31074;DHT22;17730;53.552;9.940;2023-03-19T01:00:58;10.80;99.90
31074;DHT22;17730;53.552;9.940;2023-03-19T01:03:23;10.80;99.90
31074;DHT22;17730;53.552;9.940;2023-03-19T01:05:49;10.80;99.90
31074;DHT22;17730;53.552;9.940;2023-03-19T01:08:15;10.80;99.90
31074;DHT22;17730;53.552;9.940;2023-03-19T01:10:40;10.90;99.90
31074;DHT22;17730;53.552;9.940;2023-03-19T01:13:06;10.90;99.90
31074;DHT22;17730;53.552;9.940;2023-03-19T01:15:38;10.90;99.90
31074;DHT22;17730;53.552;9.940;2023-03-19T01:18:04;10.90;99.90
31074;DHT22;17730;53.552;9.940;2023-03-19T01:20:29;10.90;99.90
31074;DHT22;17730;53.552;9.940;2023-03-19T01:22:55;10.90;99.90
31074;DHT22;17730;53.552;9.940;2023-03-19T01:25:21;10.80;99.90
31074;DHT22;17730;53.552;9.940;2023-03-19T01:27:47;10.70;99.90
31074;DHT22;17730;53.552;9.940;2023-03-19T01:30:12;10.70;99.90
31074;DHT22;17730;53.552;9.940;2023-03-19T01:32:38;10.70;99.90
31074;DHT22;17730;53.552;9.940;2023-03-19T01:35:04;10.60;99.90
31074;DHT22;17730;53.552;9.940;2023-03-19T01:37:29;10.60;99.90
31074;DHT22;17730;53.552;9.940;2023-03-19T01:39:55;10.60;99.90
31074;DHT22;17730;53.552;9.940;2023-03-19T01:42:20;10.60;99.90
31074;DHT22;17730;53.552;9.940;2023-03-19T01:44:46;10.70;99.90
31074;DHT22;17730;53.552;9.940;2023-03-19T01:47:16;10.70;99.90
31074;DHT22;17730;53.552;9.940;2023-03-19T01:49:42;10.70;99.90
31074;DHT22;17730;53.552;9.940;2023-03-19T01:52:10;10.80;99.90
31074;DHT22;17730;53.552;9.940;2023-03-19T01:54:36;10.70;99.90
31074;DHT22;17730;53.552;9.940;2023-03-19T01:57:04;10.70;99.90
31074;DHT22;17730;53.552;9.940;2023-03-19T01:59:32;10.70;99.90
31074;DHT22;17730;53.552;9.940;2023-03-19T02:02:07;10.70;99.90
31074;DHT22;17730;53.552;9.940;2023-03-19T02:04:34;10.70;99.90
31074;DHT22;17730;53.552;9.940;2023-03-19T02:07:02;10.70;99.90
31074;DHT22;17730;53.552;9.940;2023-03-19T02:09:28;10.70;99.90
31074;DHT22;17730;53.552;9.940;2023-03-19T02:11:54;10.60;99.90
31074;DHT22;17730;53.552;9.940;2023-03-19T02:14:20;10.60;99.90
31074;DHT22;17730;53.552;9.940;2023-03-19T02:16:45;10.50;99.90
31074;DHT22;17730;53.552;9.940;2023-03-19T02:19:12;10.50;99.90
31074;DHT22;17730;53.552;9.940;2023-03-19T02:21:38;10.40;99.90
31074;DHT22;17730;53.552;9.940;2023-03-19T02:24:15;10.40;99.90
31074;DHT22;17730;53.552;9.940;2023-03-19T02:26:41;10.40;99.90
31074;DHT22;17730;53.552;9.940;2023-03-19T02:29:08;10.30;99.90
31074;DHT22;17730;53.552;9.940;2023-03-19T02:31:34;10.20;99.90
31074;DHT22;17730;53.552;9.940;2023-03-19T02:34:03;10.20;99.90
31074;DHT22;17730;53.552;9.940;2023-03-19T02:36:37;10.20;99.90
31074;DHT22;17730;53.552;9.940;2023-03-19T02:39:06;10.10;99.90
31074;DHT22;17730;53.552;9.940;2023-03-19T02:41:34;10.10;99.90
31074;DHT22;17730;53.552;9.940;2023-03-19T02:44:01;10.10;99.90
31074;DHT22;17730;53.552;9.940;2023-03-19T02:46:27;10.10;99.90
31074;DHT22;17730;53.552;9.940;2023-03-19T02:48:53;10.10;99.90
31074;DHT22;17730;53.552;9.940;2023-03-19T02:51:18;10.00;99.90
31074;DHT22;17730;53.552;9.940;2023-03-19T02:53:44;10.00;99.90
31074;DHT22;17730;53.552;9.940;2023-03-19T02:56:09;9.90;99.90
31074;DHT22;17730;53.552;9.940;2023-03-19T02:58:35;9.90;99.90
31074;DHT22;17730;53.552;9.940;2023-03-19T03:01:00;9.90;99.90
31074;DHT22;17730;53.552;9.940;2023-03-19T03:03:26;9.80;99.90
31074;DHT22;17730;53.552;9.940;2023-03-19T03:05:51;9.80;99.90
31074;DHT22;17730;53.552;9.940;2023-03-19T03:08:17;9.90;99.90
31074;DHT22;17730;53.552;9.940;2023-03-19T03:10:42;9.90;99.90
31074;DHT22;17730;53.552;9.940;2023-03-19T03:13:08;9.90;99.90
31074;DHT22;17730;53.552;9.940;2023-03-19T03:15:33;9.80;99.90
31074;DHT22;17730;53.552;9.940;2023-03-19T03:17:59;9.80;99.90
31074;DHT22;17730;53.552;9.940;2023-03-19T03:20:25;9.70;99.90
31074;DHT22;17730;53.552;9.940;2023-03-19T03:22:50;9.70;99.90
31074;DHT22;17730;53.552;9.940;2023-03-19T03:25:16;9.70;99.90
31074;DHT22;17730;53.552;9.940;2023-03-19T03:27:41;9.80;99.90
31074;DHT22;17730;53.552;9.940;2023-03-19T03:30:07;9.80;99.90
31074;DHT22;17730;53.552;9.940;2023-03-19T03:32:34;9.70;99.90
31074;DHT22;17730;53.552;9.940;2023-03-19T03:34:59;9.70;99.90
31074;DHT22;17730;53.552;9.940;2023-03-19T03:37:25;9.70;99.90
31074;DHT22;17730;53.552;9.940;2023-03-19T03:39:51;9.70;99.90
31074;DHT22;17730;53.552;9.940;2023-03-19T03:42:17;9.70;99.90
31074;DHT22;17730;53.552;9.940;2023-03-19T03:44:43;9.80;99.90
31074;DHT22;17730;53.552;9.940;2023-03-19T03:47:08;9.80;99.90
31074;DHT22;17730;53.552;9.940;2023-03-19T03:49:34;9.80;99.90
31074;DHT22;17730;53.552;9.940;2023-03-19T03:51:59;9.80;99.90
31074;DHT22;17730;53.552;9.940;2023-03-19T03:54:24;9.80;99.90
31074;DHT22;17730;53.552;9.940;2023-03-19T03:56:50;9.80;99.90
31074;DHT22;17730;53.552;9.940;2023-03-19T03:59:15;9.80;99.90
31074;DHT22;17730;53.552;9.940;2023-03-19T04:01:41;9.80;99.90
31074;DHT22;17730;53.552;9.940;2023-03-19T04:04:06;9.80;99.90
31074;DHT22;17730;53.552;9.940;2023-03-19T04:06:32;9.80;99.90
31074;DHT22;17730;53.552;9.940;2023-03-19T04:08:59;9.80;99.90
31074;DHT22;17730;53.552;9.940;2023-03-19T04:11:25;9.90;99.90
31074;DHT22;17730;53.552;9.940;2023-03-19T04:13:50;9.80;99.90
31074;DHT22;17730;53.552;9.940;2023-03-19T04:16:16;9.80;99.90
31074;DHT22;17730;53.552;9.940;2023-03-19T04:18:41;9.80;99.90
31074;DHT22;17730;53.552;9.940;2023-03-19T04:21:07;9.90;99.90
31074;DHT22;17730;53.552;9.940;2023-03-19T04:23:33;9.90;99.90
31074;DHT22;17730;53.552;9.940;2023-03-19T04:25:59;9.90;99.90
31074;DHT22;17730;53.552;9.940;2023-03-19T04:28:26;10.00;99.90
31074;DHT22;17730;53.552;9.940;2023-03-19T04:30:51;10.00;99.90
31074;DHT22;17730;53.552;9.940;2023-03-19T04:33:17;9.90;99.90
31074;DHT22;17730;53.552;9.940;2023-03-19T04:35:42;9.90;99.90
31074;DHT22;17730;53.552;9.940;2023-03-19T04:38:08;10.00;99.90
31074;DHT22;17730;53.552;9.940;2023-03-19T04:40:33;10.00;99.90
31074;DHT22;17730;53.552;9.940;2023-03-19T04:42:59;9.90;99.90
31074;DHT22;17730;53.552;9.940;2023-03-19T04:45:24;10.00;99.90
31074;DHT22;17730;53.552;9.940;2023-03-19T04:47:50;10.00;99.90
31074;DHT22;17730;53.552;9.940;2023-03-19T04:50:16;9.90;99.90
31074;DHT22;17730;53.552;9.940;2023-03-19T04:52:42;10.00;99.90
31074;DHT22;17730;53.552;9.940;2023-03-19T04:55:08;10.00;99.90
31074;DHT22;17730;53.552;9.940;2023-03-19T04:57:33;10.10;99.90
31074;DHT22;17730;53.552;9.940;2023-03-19T04:59:59;10.10;99.90
31074;DHT22;17730;53.552;9.940;2023-03-19T05:02:24;10.20;99.90
31074;DHT22;17730;53.552;9.940;2023-03-19T05:04:50;10.20;99.90
31074;DHT22;17730;53.552;9.940;2023-03-19T05:07:15;10.20;99.90
31074;DHT22;17730;53.552;9.940;2023-03-19T05:09:41;10.20;99.90
31074;DHT22;17730;53.552;9.940;2023-03-19T05:12:08;10.20;99.90
31074;DHT22;17730;53.552;9.940;2023-03-19T05:14:34;10.20;99.90
31074;DHT22;17730;53.552;9.940;2023-03-19T05:16:59;10.20;99.90
31074;DHT22;17730;53.552;9.940;2023-03-19T05:19:25;10.20;99.90
31074;DHT22;17730;53.552;9.940;2023-03-19T05:21:50;10.10;99.90
31074;DHT22;17730;53.552;9.940;2023-03-19T05:24:16;10.10;99.90
31074;DHT22;17730;53.552;9.940;2023-03-19T05:26:41;10.10;99.90
31074;DHT22;17730;53.552;9.940;2023-03-19T05:29:07;10.10;99.90
31074;DHT22;17730;53.552;9.940;2023-03-19T05:31:35;10.10;99.90
31074;DHT22;17730;53.552;9.940;2023-03-19T05:34:01;10.10;99.90
31074;DHT22;17730;53.552;9.940;2023-03-19T05:36:27;10.00;99.90
31074;DHT22;17730;53.552;9.940;2023-03-19T05:38:53;10.00;99.90
31074;DHT22;17730;53.552;9.940;2023-03-19T05:41:18;10.00;99.90
31074;DHT22;17730;53.552;9.940;2023-03-19T05:43:44;9.90;99.90
31074;DHT22;17730;53.552;9.940;2023-03-19T05:46:09;9.90;99.90
31074;DHT22;17730;53.552;9.940;2023-03-19T05:48:35;9.90;99.90
31074;DHT22;17730;53.552;9.940;2023-03-19T05:51:02;9.90;99.90
31074;DHT22;17730;53.552;9.940;2023-03-19T05:53:27;9.90;99.90
31074;DHT22;17730;53.552;9.940;2023-03-19T05:55:52;9.90;99.90
31074;DHT22;17730;53.552;9.940;2023-03-19T05:58:18;9.90;99.90
31074;DHT22;17730;53.552;9.940;2023-03-19T06:00:43;10.00;99.90
31074;DHT22;17730;53.552;9.940;2023-03-19T06:03:09;10.00;99.90
31074;DHT22;17730;53.552;9.940;2023-03-19T06:05:35;10.00;99.90
31074;DHT22;17730;53.552;9.940;2023-03-19T06:08:00;10.00;99.90
31074;DHT22;17730;53.552;9.940;2023-03-19T06:10:26;10.10;99.90
31074;DHT22;17730;53.552;9.940;2023-03-19T06:12:51;10.20;99.90
31074;DHT22;17730;53.552;9.940;2023-03-19T06:15:17;10.20;99.90
31074;DHT22;17730;53.552;9.940;2023-03-19T06:17:42;10.30;99.90
31074;DHT22;17730;53.552;9.940;2023-03-19T06:20:09;10.30;99.90
31074;DHT22;17730;53.552;9.940;2023-03-19T06:22:35;10.30;99.90
31074;DHT22;17730;53.552;9.940;2023-03-19T06:25:01;10.40;99.90
31074;DHT22;17730;53.552;9.940;2023-03-19T06:27:26;10.40;99.90
31074;DHT22;17730;53.552;9.940;2023-03-19T06:29:52;10.50;99.90
31074;DHT22;17730;53.552;9.940;2023-03-19T06:32:17;10.50;99.90
31074;DHT22;17730;53.552;9.940;2023-03-19T06:34:43;10.60;99.90
31074;DHT22;17730;53.552;9.940;2023-03-19T06:37:08;10.70;99.90
31074;DHT22;17730;53.552;9.940;2023-03-19T06:39:34;10.70;99.90
31074;DHT22;17730;53.552;9.940;2023-03-19T06:41:59;10.80;99.90
31074;DHT22;17730;53.552;9.940;2023-03-19T06:44:25;10.90;99.90
31074;DHT22;17730;53.552;9.940;2023-03-19T06:46:50;10.90;99.90
31074;DHT22;17730;53.552;9.940;2023-03-19T06:49:16;11.00;99.90
31074;DHT22;17730;53.552;9.940;2023-03-19T06:51:42;11.10;99.90
31074;DHT22;17730;53.552;9.940;2023-03-19T06:54:07;11.20;99.90
31074;DHT22;17730;53.552;9.940;2023-03-19T06:56:33;11.40;99.90
31074;DHT22;17730;53.552;9.940;2023-03-19T06:58:58;11.40;99.90
31074;DHT22;17730;53.552;9.940;2023-03-19T07:01:24;11.50;99.90
31074;DHT22;17730;53.552;9.940;2023-03-19T07:03:49;11.60;99.90
31074;DHT22;17730;53.552;9.940;2023-03-19T07:06:15;11.70;99.90
31074;DHT22;17730;53.552;9.940;2023-03-19T07:08:40;11.70;99.90
31074;DHT22;17730;53.552;9.940;2023-03-19T07:11:10;11.80;99.90
31074;DHT22;17730;53.552;9.940;2023-03-19T07:13:36;11.90;99.90
31074;DHT22;17730;53.552;9.940;2023-03-19T07:16:02;11.90;99.90
31074;DHT22;17730;53.552;9.940;2023-03-19T07:18:27;12.00;99.90
31074;DHT22;17730;53.552;9.940;2023-03-19T07:20:53;12.00;99.90
31074;DHT22;17730;53.552;9.940;2023-03-19T07:23:18;12.10;99.90
31074;DHT22;17730;53.552;9.940;2023-03-19T07:25:44;12.30;99.90
31074;DHT22;17730;53.552;9.940;2023-03-19T07:28:11;12.40;99.90
31074;DHT22;17730;53.552;9.940;2023-03-19T07:30:36;12.70;99.90
31074;DHT22;17730;53.552;9.940;2023-03-19T07:33:03;12.90;99.90
31074;DHT22;17730;53.552;9.940;2023-03-19T07:35:28;13.20;99.90
31074;DHT22;17730;53.552;9.940;2023-03-19T07:37:54;13.50;99.90
31074;DHT22;17730;53.552;9.940;2023-03-19T07:40:20;13.70;99.90
31074;DHT22;17730;53.552;9.940;2023-03-19T07:42:45;13.90;99.90
31074;DHT22;17730;53.552;9.940;2023-03-19T07:45:11;14.00;99.90
31074;DHT22;17730;53.552;9.940;2023-03-19T07:47:37;14.10;99.90
31074;DHT22;17730;53.552;9.940;2023-03-19T07:50:02;14.20;99.90
31074;DHT22;17730;53.552;9.940;2023-03-19T07:52:28;14.20;99.90
31074;DHT22;17730;53.552;9.940;2023-03-19T07:54:53;14.10;99.90
31074;DHT22;17730;53.552;9.940;2023-03-19T07:57:19;14.10;99.90
31074;DHT22;17730;53.552;9.940;2023-03-19T07:59:45;14.00;99.90
31074;DHT22;17730;53.552;9.940;2023-03-19T08:02:11;14.00;99.90
31074;DHT22;17730;53.552;9.940;2023-03-19T08:04:37;14.10;99.90
31074;DHT22;17730;53.552;9.940;2023-03-19T08:07:03;14.10;99.90
31074;DHT22;17730;53.552;9.940;2023-03-19T08:09:28;14.20;99.90
31074;DHT22;17730;53.552;9.940;2023-03-19T08:11:54;14.20;99.90
31074;DHT22;17730;53.552;9.940;2023-03-19T08:14:19;14.30;99.90
31074;DHT22;17730;53.552;9.940;2023-03-19T08:16:47;14.40;99.90
31074;DHT22;17730;53.552;9.940;2023-03-19T08:19:12;14.40;99.90
31074;DHT22;17730;53.552;9.940;2023-03-19T08:21:38;14.50;99.90
31074;DHT22;17730;53.552;9.940;2023-03-19T08:24:04;14.50;99.90
31074;DHT22;17730;53.552;9.940;2023-03-19T08:26:29;14.60;99.90
31074;DHT22;17730;53.552;9.940;2023-03-19T08:28:57;14.60;99.90
31074;DHT22;17730;53.552;9.940;2023-03-19T08:31:23;14.70;99.90
31074;DHT22;17730;53.552;9.940;2023-03-19T08:33:48;14.80;99.90
31074;DHT22;17730;53.552;9.940;2023-03-19T08:36:14;15.00;99.90
31074;DHT22;17730;53.552;9.940;2023-03-19T08:38:39;15.50;99.90
31074;DHT22;17730;53.552;9.940;2023-03-19T08:41:05;15.80;99.90
31074;DHT22;17730;53.552;9.940;2023-03-19T08:43:31;16.10;99.90
31074;DHT22;17730;53.552;9.940;2023-03-19T08:45:56;16.50;99.90
31074;DHT22;17730;53.552;9.940;2023-03-19T08:48:22;16.90;99.90
31074;DHT22;17730;53.552;9.940;2023-03-19T08:50:51;17.00;99.90
31074;DHT22;17730;53.552;9.940;2023-03-19T08:53:17;17.10;99.90
31074;DHT22;17730;53.552;9.940;2023-03-19T08:55:43;17.00;99.90
31074;DHT22;17730;53.552;9.940;2023-03-19T08:58:08;16.80;99.90
31074;DHT22;17730;53.552;9.940;2023-03-19T09:00:34;16.90;99.90
31074;DHT22;17730;53.552;9.940;2023-03-19T09:02:59;16.80;99.90
31074;DHT22;17730;53.552;9.940;2023-03-19T09:05:24;16.60;99.90
31074;DHT22;17730;53.552;9.940;2023-03-19T09:07:50;16.30;99.90
31074;DHT22;17730;53.552;9.940;2023-03-19T09:10:17;16.40;99.90
31074;DHT22;17730;53.552;9.940;2023-03-19T09:12:42;16.70;99.90
31074;DHT22;17730;53.552;9.940;2023-03-19T09:15:08;17.10;99.90
31074;DHT22;17730;53.552;9.940;2023-03-19T09:17:34;17.60;99.90
31074;DHT22;17730;53.552;9.940;2023-03-19T09:19:59;18.00;99.90
31074;DHT22;17730;53.552;9.940;2023-03-19T09:22:25;18.50;99.90
31074;DHT22;17730;53.552;9.940;2023-03-19T09:24:50;18.80;98.90
31074;DHT22;17730;53.552;9.940;2023-03-19T09:27:16;19.00;97.80
31074;DHT22;17730;53.552;9.940;2023-03-19T09:29:43;18.80;96.80
31074;DHT22;17730;53.552;9.940;2023-03-19T09:32:08;18.70;97.30
31074;DHT22;17730;53.552;9.940;2023-03-19T09:34:34;18.70;97.30
31074;DHT22;17730;53.552;9.940;2023-03-19T09:36:59;18.70;97.00
31074;DHT22;17730;53.552;9.940;2023-03-19T09:39:25;18.60;96.90
31074;DHT22;17730;53.552;9.940;2023-03-19T09:44:37;18.60;97.20
31074;DHT22;17730;53.552;9.940;2023-03-19T09:49:50;18.80;96.90
31074;DHT22;17730;53.552;9.940;2023-03-19T09:55:04;19.30;95.40
31074;DHT22;17730;53.552;9.940;2023-03-19T09:57:31;19.50;95.20
31074;DHT22;17730;53.552;9.940;2023-03-19T09:59:57;19.60;94.70
31074;DHT22;17730;53.552;9.940;2023-03-19T10:02:39;19.70;94.20
31074;DHT22;17730;53.552;9.940;2023-03-19T10:05:14;19.70;93.70
31074;DHT22;17730;53.552;9.940;2023-03-19T10:10:18;19.60;93.90
31074;DHT22;17730;53.552;9.940;2023-03-19T10:12:53;19.60;94.00
31074;DHT22;17730;53.552;9.940;2023-03-19T10:15:27;19.50;94.40
31074;DHT22;17730;53.552;9.940;2023-03-19T10:20:23;19.80;93.20
31074;DHT22;17730;53.552;9.940;2023-03-19T10:22:51;19.70;93.00
31074;DHT22;17730;53.552;9.940;2023-03-19T10:25:20;19.80;93.30
31074;DHT22;17730;53.552;9.940;2023-03-19T10:27:49;20.20;92.70
31074;DHT22;17730;53.552;9.940;2023-03-19T10:30:16;20.70;91.10
31074;DHT22;17730;53.552;9.940;2023-03-19T10:32:44;20.70;90.10
31074;DHT22;17730;53.552;9.940;2023-03-19T10:35:16;20.60;90.00
31074;DHT22;17730;53.552;9.940;2023-03-19T10:37:42;20.60;90.00
31074;DHT22;17730;53.552;9.940;2023-03-19T10:40:29;20.80;89.10
31074;DHT22;17730;53.552;9.940;2023-03-19T10:43:10;20.80;87.90
31074;DHT22;17730;53.552;9.940;2023-03-19T10:45:37;20.70;88.00
31074;DHT22;17730;53.552;9.940;2023-03-19T10:48:03;20.50;89.40
31074;DHT22;17730;53.552;9.940;2023-03-19T10:51:03;20.50;89.60
31074;DHT22;17730;53.552;9.940;2023-03-19T10:55:53;20.50;88.70
31074;DHT22;17730;53.552;9.940;2023-03-19T10:58:21;20.40;88.60
31074;DHT22;17730;53.552;9.940;2023-03-19T11:00:48;20.10;90.10
31074;DHT22;17730;53.552;9.940;2023-03-19T11:03:31;20.00;90.40
31074;DHT22;17730;53.552;9.940;2023-03-19T11:06:14;19.80;91.00
31074;DHT22;17730;53.552;9.940;2023-03-19T11:08:41;19.80;91.40
31074;DHT22;17730;53.552;9.940;2023-03-19T11:11:21;19.80;91.40
31074;DHT22;17730;53.552;9.940;2023-03-19T11:13:47;19.90;91.30
31074;DHT22;17730;53.552;9.940;2023-03-19T11:16:13;19.90;91.50
31074;DHT22;17730;53.552;9.940;2023-03-19T11:18:39;19.80;91.90
31074;DHT22;17730;53.552;9.940;2023-03-19T11:21:05;19.80;92.20
31074;DHT22;17730;53.552;9.940;2023-03-19T11:23:36;19.40;92.90
31074;DHT22;17730;53.552;9.940;2023-03-19T11:26:03;18.90;94.60
31074;DHT22;17730;53.552;9.940;2023-03-19T11:28:29;18.50;95.80
31074;DHT22;17730;53.552;9.940;2023-03-19T11:33:31;18.30;96.70
31074;DHT22;17730;53.552;9.940;2023-03-19T11:36:11;18.60;96.90
31074;DHT22;17730;53.552;9.940;2023-03-19T11:39:26;19.00;96.30
31074;DHT22;17730;53.552;9.940;2023-03-19T11:46:46;20.00;92.90
31074;DHT22;17730;53.552;9.940;2023-03-19T11:51:58;19.70;93.30
31074;DHT22;17730;53.552;9.940;2023-03-19T11:54:42;19.40;94.00
31074;DHT22;17730;53.552;9.940;2023-03-19T11:57:09;19.10;94.70
31074;DHT22;17730;53.552;9.940;2023-03-19T12:07:42;17.90;98.10
31074;DHT22;17730;53.552;9.940;2023-03-19T12:12:55;17.70;99.30
31074;DHT22;17730;53.552;9.940;2023-03-19T12:15:26;17.60;99.40
31074;DHT22;17730;53.552;9.940;2023-03-19T12:18:07;17.60;99.90
31074;DHT22;17730;53.552;9.940;2023-03-19T12:26:00;17.80;99.90
31074;DHT22;17730;53.552;9.940;2023-03-19T12:28:30;17.90;99.80
31074;DHT22;17730;53.552;9.940;2023-03-19T12:33:37;18.50;98.80
31074;DHT22;17730;53.552;9.940;2023-03-19T12:36:06;18.40;98.40
31074;DHT22;17730;53.552;9.940;2023-03-19T12:38:38;18.20;98.50
31074;DHT22;17730;53.552;9.940;2023-03-19T12:41:05;17.90;99.10
31074;DHT22;17730;53.552;9.940;2023-03-19T12:46:10;17.50;99.70
31074;DHT22;17730;53.552;9.940;2023-03-19T12:48:45;17.50;99.90
31074;DHT22;17730;53.552;9.940;2023-03-19T12:51:12;17.40;99.70
31074;DHT22;17730;53.552;9.940;2023-03-19T12:56:08;17.40;99.70
31074;DHT22;17730;53.552;9.940;2023-03-19T12:58:45;17.40;99.90
31074;DHT22;17730;53.552;9.940;2023-03-19T13:01:15;17.60;99.70
31074;DHT22;17730;53.552;9.940;2023-03-19T13:04:01;17.70;99.10
31074;DHT22;17730;53.552;9.940;2023-03-19T13:06:42;17.50;99.20
31074;DHT22;17730;53.552;9.940;2023-03-19T13:17:26;17.00;99.90
31074;DHT22;17730;53.552;9.940;2023-03-19T13:19:52;16.80;99.90
31074;DHT22;17730;53.552;9.940;2023-03-19T13:22:21;16.60;99.90
31074;DHT22;17730;53.552;9.940;2023-03-19T13:24:47;16.40;99.90
31074;DHT22;17730;53.552;9.940;2023-03-19T13:27:29;16.30;99.90
31074;DHT22;17730;53.552;9.940;2023-03-19T13:32:46;16.20;99.90
31074;DHT22;17730;53.552;9.940;2023-03-19T13:37:40;16.40;99.90
31074;DHT22;17730;53.552;9.940;2023-03-19T13:40:23;16.50;99.90
31074;DHT22;17730;53.552;9.940;2023-03-19T13:42:55;16.50;99.90
31074;DHT22;17730;53.552;9.940;2023-03-19T13:45:34;16.40;99.90
31074;DHT22;17730;53.552;9.940;2023-03-19T13:50:55;16.40;99.90
31074;DHT22;17730;53.552;9.940;2023-03-19T13:55:57;16.30;99.90
31074;DHT22;17730;53.552;9.940;2023-03-19T13:58:26;16.30;99.90
31074;DHT22;17730;53.552;9.940;2023-03-19T14:01:32;16.20;99.90
31074;DHT22;17730;53.552;9.940;2023-03-19T14:03:57;16.50;99.90
31074;DHT22;17730;53.552;9.940;2023-03-19T14:06:33;16.70;99.90
31074;DHT22;17730;53.552;9.940;2023-03-19T14:09:00;16.90;99.90
31074;DHT22;17730;53.552;9.940;2023-03-19T14:11:32;17.00;99.90
31074;DHT22;17730;53.552;9.940;2023-03-19T14:14:00;17.00;99.90
31074;DHT22;17730;53.552;9.940;2023-03-19T14:16:34;17.00;99.90
31074;DHT22;17730;53.552;9.940;2023-03-19T14:19:01;16.90;99.90
31074;DHT22;17730;53.552;9.940;2023-03-19T14:26:45;16.70;99.90
31074;DHT22;17730;53.552;9.940;2023-03-19T14:29:14;16.60;99.90
31074;DHT22;17730;53.552;9.940;2023-03-19T14:31:44;16.70;99.90
31074;DHT22;17730;53.552;9.940;2023-03-19T14:36:42;16.40;99.90
31074;DHT22;17730;53.552;9.940;2023-03-19T14:39:23;16.30;99.90
31074;DHT22;17730;53.552;9.940;2023-03-19T14:41:50;16.30;99.90
31074;DHT22;17730;53.552;9.940;2023-03-19T14:52:29;16.70;99.90
31074;DHT22;17730;53.552;9.940;2023-03-19T14:54:59;16.60;99.90
31074;DHT22;17730;53.552;9.940;2023-03-19T14:57:26;16.50;99.90
31074;DHT22;17730;53.552;9.940;2023-03-19T14:59:52;16.50;99.90
31074;DHT22;17730;53.552;9.940;2023-03-19T15:04:46;16.50;99.90
31074;DHT22;17730;53.552;9.940;2023-03-19T15:07:19;16.30;99.90
31074;DHT22;17730;53.552;9.940;2023-03-19T15:09:47;16.10;99.90
31074;DHT22;17730;53.552;9.940;2023-03-19T15:17:31;15.60;99.90
31074;DHT22;17730;53.552;9.940;2023-03-19T15:19:59;15.50;99.90
31074;DHT22;17730;53.552;9.940;2023-03-19T15:22:26;15.40;99.90
31074;DHT22;17730;53.552;9.940;2023-03-19T15:25:03;15.20;99.90
31074;DHT22;17730;53.552;9.940;2023-03-19T15:27:28;15.10;99.90
31074;DHT22;17730;53.552;9.940;2023-03-19T15:29:54;14.90;99.90
31074;DHT22;17730;53.552;9.940;2023-03-19T15:32:33;14.90;99.90
31074;DHT22;17730;53.552;9.940;2023-03-19T15:34:59;14.70;99.90
31074;DHT22;17730;53.552;9.940;2023-03-19T15:37:24;14.70;99.90
31074;DHT22;17730;53.552;9.940;2023-03-19T15:39:52;14.60;99.90
31074;DHT22;17730;53.552;9.940;2023-03-19T15:42:18;14.60;99.90
31074;DHT22;17730;53.552;9.940;2023-03-19T15:44:46;14.60;99.90
31074;DHT22;17730;53.552;9.940;2023-03-19T15:47:15;14.70;99.90
31074;DHT22;17730;53.552;9.940;2023-03-19T15:49:43;14.70;99.90
31074;DHT22;17730;53.552;9.940;2023-03-19T15:52:13;14.80;99.90
31074;DHT22;17730;53.552;9.940;2023-03-19T15:54:39;14.80;99.90
31074;DHT22;17730;53.552;9.940;2023-03-19T15:57:06;14.90;99.90
31074;DHT22;17730;53.552;9.940;2023-03-19T15:59:32;14.80;99.90
31074;DHT22;17730;53.552;9.940;2023-03-19T16:02:01;14.80;99.90
31074;DHT22;17730;53.552;9.940;2023-03-19T16:04:27;14.80;99.90
31074;DHT22;17730;53.552;9.940;2023-03-19T16:06:57;14.80;99.90
31074;DHT22;17730;53.552;9.940;2023-03-19T16:09:25;14.80;99.90
31074;DHT22;17730;53.552;9.940;2023-03-19T16:11:51;14.90;99.90
31074;DHT22;17730;53.552;9.940;2023-03-19T16:14:20;14.90;99.90
31074;DHT22;17730;53.552;9.940;2023-03-19T16:16:47;14.90;99.90
31074;DHT22;17730;53.552;9.940;2023-03-19T16:21:51;14.90;99.90
31074;DHT22;17730;53.552;9.940;2023-03-19T16:24:23;14.80;99.90
31074;DHT22;17730;53.552;9.940;2023-03-19T16:26:51;14.80;99.90
31074;DHT22;17730;53.552;9.940;2023-03-19T16:31:49;14.60;99.90
31074;DHT22;17730;53.552;9.940;2023-03-19T16:36:49;14.40;99.90
31074;DHT22;17730;53.552;9.940;2023-03-19T16:41:55;14.20;99.90
31074;DHT22;17730;53.552;9.940;2023-03-19T16:44:39;14.10;99.90
31074;DHT22;17730;53.552;9.940;2023-03-19T16:47:12;14.00;99.90
31074;DHT22;17730;53.552;9.940;2023-03-19T16:49:38;13.90;99.90
31074;DHT22;17730;53.552;9.940;2023-03-19T16:52:03;13.90;99.90
31074;DHT22;17730;53.552;9.940;2023-03-19T16:54:29;13.80;99.90
31074;DHT22;17730;53.552;9.940;2023-03-19T16:56:55;13.70;99.90
31074;DHT22;17730;53.552;9.940;2023-03-19T16:59:22;13.70;99.90
31074;DHT22;17730;53.552;9.940;2023-03-19T17:01:50;13.70;99.90
31074;DHT22;17730;53.552;9.940;2023-03-19T17:04:16;13.60;99.90
31074;DHT22;17730;53.552;9.940;2023-03-19T17:06:42;13.60;99.90
31074;DHT22;17730;53.552;9.940;2023-03-19T17:09:07;13.50;99.90
31074;DHT22;17730;53.552;9.940;2023-03-19T17:11:37;13.50;99.90
31074;DHT22;17730;53.552;9.940;2023-03-19T17:14:04;13.50;99.90
31074;DHT22;17730;53.552;9.940;2023-03-19T17:16:30;13.40;99.90